Time;durP1;ratioP1;P1;durP2;ratioP2;P2;SDS_P1;SDS_P2;PMS_P1;PMS_P2;Temp;Humidity;BMP_temperature;BMP_pressure;BME280_temperature;BME280_humidity;BME280_pressure;Samples;Min_cycle;Max_cycle;Signal;HPM_P1;HPM_P2
2023/09/04 00:09:02;;;;;;;3.33;2.13;;;14.50;99.90;;;;;;21015692;28;20101;-58
2023/09/04 00:19:06;;;;;;;5.75;2.80;;;14.30;99.90;;;;;;21038933;28;20032;-57
2023/09/04 00:29:07;;;;;;;5.20;2.10;;;14.00;99.90;;;;;;21039967;28;20032;-56
2023/09/04 00:39:09;;;;;;;2.70;2.00;;;13.90;99.90;;;;;;21042796;28;20039;-58
2023/09/04 00:49:14;;;;;;;4.78;2.10;;;13.90;99.90;;;;;;21055071;28;20025;-51
2023/09/04 00:59:24;;;;;;;3.70;1.92;;;13.50;99.90;;;;;;21059491;28;20055;-58
2023/09/04 01:09:26;;;;;;;3.25;2.20;;;13.20;99.90;;;;;;21048476;28;20052;-53
2023/09/04 01:19:28;;;;;;;3.15;2.10;;;13.80;99.90;;;;;;21048115;28;20043;-58
2023/09/04 01:29:36;;;;;;;3.72;2.45;;;13.90;99.90;;;;;;21051522;28;20028;-57
2023/09/04 01:39:40;;;;;;;2.70;1.77;;;13.50;99.90;;;;;;21050957;28;20081;-54
2023/09/04 01:49:42;;;;;;;3.50;1.67;;;13.50;99.90;;;;;;21032549;28;20028;-58
2023/09/04 01:59:44;;;;;;;3.05;2.10;;;13.70;99.90;;;;;;21030885;28;20024;-52
2023/09/04 02:09:46;;;;;;;3.78;2.20;;;13.90;99.90;;;;;;21028003;28;20044;-57
2023/09/04 02:19:48;;;;;;;4.18;2.10;;;13.40;99.90;;;;;;21032783;28;20032;-58
2023/09/04 02:29:50;;;;;;;3.42;2.15;;;13.30;99.90;;;;;;21045628;28;20052;-58
2023/09/04 02:39:52;;;;;;;3.33;2.10;;;13.40;99.90;;;;;;21042853;28;20454;-59
2023/09/04 02:49:55;;;;;;;3.42;2.20;;;13.00;99.90;;;;;;21042761;28;20107;-59
2023/09/04 02:59:59;;;;;;;4.53;2.88;;;13.40;99.90;;;;;;21047758;28;20032;-58
2023/09/04 03:10:01;;;;;;;3.33;2.45;;;13.60;99.90;;;;;;21038959;28;20090;-58
2023/09/04 03:20:05;;;;;;;3.13;2.22;;;13.50;99.90;;;;;;21014450;28;20065;-58
2023/09/04 03:30:10;;;;;;;2.97;2.58;;;13.40;99.90;;;;;;21028663;28;20088;-59
2023/09/04 03:40:24;;;;;;;3.50;2.72;;;13.30;99.90;;;;;;20972416;28;20394;-53
2023/09/04 03:50:26;;;;;;;4.03;2.50;;;13.00;99.90;;;;;;21000896;28;20036;-58
2023/09/04 04:00:29;;;;;;;3.95;2.75;;;12.90;99.90;;;;;;21012205;28;20024;-58
2023/09/04 04:10:31;;;;;;;4.10;2.22;;;12.70;99.90;;;;;;20988485;28;20044;-58
2023/09/04 04:20:33;;;;;;;3.00;2.60;;;12.50;99.90;;;;;;20998512;28;20045;-59
2023/09/04 04:30:36;;;;;;;3.53;2.58;;;12.30;99.90;;;;;;21026969;28;20032;-52
2023/09/04 04:40:39;;;;;;;3.78;2.72;;;12.20;99.90;;;;;;21011983;28;20035;-57
2023/09/04 04:50:41;;;;;;;3.20;2.45;;;12.20;99.90;;;;;;21002562;28;20044;-59
2023/09/04 05:00:43;;;;;;;4.07;2.63;;;12.30;99.90;;;;;;21001379;28;20028;-57
2023/09/04 05:10:45;;;;;;;4.13;2.35;;;12.40;99.90;;;;;;21008294;28;20078;-58
2023/09/04 05:20:48;;;;;;;3.45;2.65;;;12.70;99.90;;;;;;21039040;28;20028;-58
2023/09/04 05:30:50;;;;;;;4.47;2.78;;;12.90;99.90;;;;;;21005449;28;20082;-51
2023/09/04 05:40:55;;;;;;;3.35;2.75;;;13.10;99.90;;;;;;21012690;28;20028;-58
2023/09/04 05:51:03;;;;;;;4.63;3.20;;;13.30;99.90;;;;;;21003969;28;20036;-59
2023/09/04 06:01:05;;;;;;;5.40;3.60;;;13.40;99.90;;;;;;21031644;28;20485;-59
2023/09/04 06:11:07;;;;;;;7.07;4.00;;;13.50;99.90;;;;;;21030241;28;20036;-58
2023/09/04 06:21:09;;;;;;;5.22;4.25;;;13.50;99.90;;;;;;21024612;28;20039;-58
2023/09/04 06:31:35;;;;;;;7.22;3.92;;;13.80;99.90;;;;;;21026696;28;20067;-59
2023/09/04 06:41:37;;;;;;;9.20;8.23;;;14.30;99.90;;;;;;21012741;28;20102;-59
2023/09/04 06:51:42;;;;;;;10.68;8.88;;;15.70;99.90;;;;;;20994164;28;20094;-60
2023/09/04 07:01:45;;;;;;;7.32;6.18;;;17.60;99.90;;;;;;21018449;28;20053;-55
2023/09/04 07:11:48;;;;;;;7.70;6.88;;;19.20;99.90;;;;;;20983120;28;20032;-61
2023/09/04 07:21:50;;;;;;;7.10;6.40;;;19.60;99.90;;;;;;21004802;28;20072;-55
2023/09/04 07:31:53;;;;;;;10.27;9.27;;;19.10;99.90;;;;;;20999640;28;20033;-59
2023/09/04 07:41:57;;;;;;;8.68;7.65;;;19.20;99.90;;;;;;20977853;28;20546;-61
2023/09/04 07:52:00;;;;;;;8.93;7.93;;;19.20;99.90;;;;;;21013175;28;20077;-60
2023/09/04 08:02:03;;;;;;;8.45;7.53;;;19.10;99.90;;;;;;20984983;28;20051;-60
2023/09/04 08:12:06;;;;;;;9.45;8.55;;;19.10;99.90;;;;;;21007977;28;20036;-53
2023/09/04 08:22:09;;;;;;;8.43;7.63;;;19.20;99.90;;;;;;21005221;28;20099;-60
2023/09/04 08:32:11;;;;;;;8.15;7.35;;;19.50;99.90;;;;;;20989360;28;20054;-60
2023/09/04 08:42:14;;;;;;;9.00;8.10;;;19.80;99.90;;;;;;21002493;28;20033;-60
2023/09/04 08:52:17;;;;;;;8.77;7.88;;;20.10;99.90;;;;;;20992988;28;20025;-56
2023/09/04 09:02:22;;;;;;;8.23;6.95;;;20.20;99.90;;;;;;20998646;28;20110;-56
2023/09/04 09:12:25;;;;;;;8.40;7.35;;;19.70;99.90;;;;;;21005718;28;20044;-59
2023/09/04 09:22:28;;;;;;;11.43;10.32;;;19.60;99.90;;;;;;21018743;28;20040;-58
2023/09/04 09:32:32;;;;;;;7.97;7.15;;;20.30;99.90;;;;;;21005816;28;20033;-60
2023/09/04 09:42:36;;;;;;;11.35;8.27;;;21.70;99.90;;;;;;21013984;28;20038;-55
2023/09/04 09:53:00;;;;;;;11.60;9.30;;;22.10;99.90;;;;;;21025991;28;20493;-61
2023/09/04 10:03:06;;;;;;;8.93;7.80;;;21.70;99.90;;;;;;20993757;28;20056;-61
2023/09/04 10:13:29;;;;;;;8.13;6.88;;;20.90;99.90;;;;;;21011787;28;20046;-54
2023/09/04 10:23:41;;;;;;;7.07;6.38;;;20.20;99.90;;;;;;20987916;28;20078;-60
2023/09/04 10:33:45;;;;;;;7.03;6.43;;;20.10;99.90;;;;;;21002273;28;20485;-61
2023/09/04 10:43:48;;;;;;;7.47;6.53;;;20.40;99.90;;;;;;21025139;28;20455;-61
2023/09/04 10:53:56;;;;;;;8.25;7.45;;;20.50;99.90;;;;;;20997669;28;20020;-60
2023/09/04 11:04:02;;;;;;;7.65;6.28;;;20.60;99.90;;;;;;21002292;28;20045;-60
2023/09/04 11:14:11;;;;;;;9.45;6.13;;;21.40;99.90;;;;;;21006247;28;20033;-59
2023/09/04 11:24:19;;;;;;;10.15;7.07;;;21.90;99.90;;;;;;20977780;28;20059;-60
2023/09/04 11:34:22;;;;;;;7.07;6.38;;;23.30;99.90;;;;;;21008417;28;20032;-59
2023/09/04 11:44:30;;;;;;;7.15;6.13;;;22.70;99.90;;;;;;20975916;28;20489;-61
2023/09/04 11:54:36;;;;;;;7.00;6.05;;;22.40;99.90;;;;;;21005900;28;20036;-61
2023/09/04 12:04:39;;;;;;;6.72;6.03;;;22.40;99.90;;;;;;20994413;28;20099;-58
2023/09/04 12:14:46;;;;;;;9.63;7.85;;;23.00;99.90;;;;;;20995748;28;20035;-60
2023/09/04 12:25:05;;;;;;;9.05;7.05;;;23.30;99.90;;;;;;21005812;28;20028;-61
2023/09/04 12:35:09;;;;;;;7.05;6.35;;;22.10;99.90;;;;;;20985251;28;20061;-52
2023/09/04 12:45:12;;;;;;;9.07;6.60;;;21.80;99.90;;;;;;21008298;28;20468;-59
2023/09/04 12:55:15;;;;;;;6.90;5.53;;;23.30;99.90;;;;;;20997755;28;20043;-57
2023/09/04 13:05:17;;;;;;;7.38;6.15;;;23.30;99.90;;;;;;21031179;28;20074;-60
2023/09/04 13:15:20;;;;;;;8.18;5.70;;;22.90;99.90;;;;;;21005012;28;20070;-61
2023/09/04 13:25:23;;;;;;;8.73;7.47;;;22.50;99.90;;;;;;21013438;28;20101;-61
2023/09/04 13:35:28;;;;;;;10.00;8.25;;;21.40;99.90;;;;;;21016556;28;20059;-60
2023/09/04 13:45:31;;;;;;;8.45;7.50;;;20.70;99.90;;;;;;21002076;28;20094;-61
2023/09/04 13:55:36;;;;;;;10.05;8.27;;;20.20;99.90;;;;;;21008214;28;20044;-60
2023/09/04 14:05:38;;;;;;;10.68;9.13;;;20.10;99.90;;;;;;21013098;28;20032;-60
2023/09/04 14:15:42;;;;;;;10.43;9.43;;;20.00;99.90;;;;;;21004342;28;20028;-60
2023/09/04 14:25:51;;;;;;;11.52;9.35;;;20.00;99.90;;;;;;21007774;28;20339;-60
2023/09/04 14:36:01;;;;;;;11.02;9.93;;;20.10;99.90;;;;;;20996609;28;20032;-60
2023/09/04 14:46:08;;;;;;;12.25;8.50;;;20.00;99.90;;;;;;20952954;28;20452;-60
2023/09/04 14:56:11;;;;;;;11.38;8.70;;;20.00;99.90;;;;;;21008888;28;20358;-60
2023/09/04 15:06:14;;;;;;;9.73;8.25;;;19.90;99.90;;;;;;20993106;28;20032;-60
2023/09/04 15:16:17;;;;;;;11.88;10.63;;;19.80;99.90;;;;;;21010819;28;20543;-60
2023/09/04 15:26:19;;;;;;;10.15;8.30;;;19.60;99.90;;;;;;20998345;28;20036;-60
2023/09/04 15:36:22;;;;;;;10.88;9.15;;;19.40;99.90;;;;;;20990343;28;20024;-58
2023/09/04 15:46:24;;;;;;;12.52;8.82;;;19.10;99.90;;;;;;20995633;28;20514;-61
2023/09/04 15:56:27;;;;;;;10.55;8.20;;;19.00;99.90;;;;;;20986886;28;20425;-60
2023/09/04 16:06:30;;;;;;;9.63;8.73;;;18.80;99.90;;;;;;20999983;28;20253;-60
2023/09/04 16:16:33;;;;;;;10.02;9.00;;;18.70;99.90;;;;;;21019145;28;20410;-60
2023/09/04 16:26:41;;;;;;;10.68;9.70;;;18.40;99.90;;;;;;20973828;28;20052;-59
2023/09/04 16:36:47;;;;;;;10.45;9.35;;;18.10;99.90;;;;;;21011931;28;20074;-60
2023/09/04 16:46:52;;;;;;;11.27;10.05;;;18.00;99.90;;;;;;21057933;28;20044;-60
2023/09/04 16:56:58;;;;;;;11.18;9.90;;;17.90;99.90;;;;;;21037105;28;20358;-61
2023/09/04 17:07:01;;;;;;;13.25;11.02;;;17.90;99.90;;;;;;21012118;28;20493;-60
2023/09/04 17:17:04;;;;;;;14.35;11.52;;;17.80;99.90;;;;;;21032188;28;20040;-53
2023/09/04 17:27:06;;;;;;;12.27;11.07;;;17.60;99.90;;;;;;21032960;28;20040;-60
2023/09/04 17:37:09;;;;;;;11.55;10.35;;;17.40;99.90;;;;;;21034347;28;20055;-62
2023/09/04 17:47:12;;;;;;;12.75;11.10;;;17.30;99.90;;;;;;21046782;28;20469;-62
2023/09/04 17:57:14;;;;;;;11.73;10.60;;;17.00;99.90;;;;;;21044799;28;20073;-61
2023/09/04 18:07:19;;;;;;;13.13;11.82;;;16.70;99.90;;;;;;21041874;28;20497;-60
2023/09/04 18:17:22;;;;;;;13.98;12.57;;;16.30;99.90;;;;;;21053644;28;20040;-59
2023/09/04 18:27:25;;;;;;;14.65;13.05;;;16.00;99.90;;;;;;21047343;28;20028;-60
2023/09/04 18:37:29;;;;;;;16.40;14.70;;;16.00;99.90;;;;;;21038971;28;20039;-53
2023/09/04 18:47:31;;;;;;;13.93;12.63;;;16.10;99.90;;;;;;21050545;28;20028;-59
2023/09/04 18:57:36;;;;;;;14.23;11.65;;;16.10;99.90;;;;;;21040916;28;20483;-59
2023/09/04 19:07:39;;;;;;;13.70;12.40;;;16.20;99.90;;;;;;21027871;28;20035;-59
2023/09/04 19:17:45;;;;;;;11.88;10.65;;;16.20;99.90;;;;;;21051066;28;20040;-57
2023/09/04 19:27:49;;;;;;;12.77;11.30;;;16.20;99.90;;;;;;21027262;28;20493;-60
2023/09/04 19:37:59;;;;;;;11.85;10.60;;;16.30;99.90;;;;;;21014368;28;20105;-60
2023/09/04 19:48:02;;;;;;;16.25;12.98;;;16.20;99.90;;;;;;21042031;28;20394;-59
2023/09/04 19:58:05;;;;;;;18.05;15.00;;;16.00;99.90;;;;;;21025690;28;20543;-59
2023/09/04 20:08:12;;;;;;;17.33;15.25;;;15.80;99.90;;;;;;20973109;28;20117;-55
2023/09/04 20:18:18;;;;;;;16.05;14.00;;;15.70;99.90;;;;;;20979448;28;20052;-59
2023/09/04 20:28:22;;;;;;;16.70;13.52;;;15.70;99.90;;;;;;21042668;28;20542;-59
2023/09/04 20:38:25;;;;;;;17.55;15.57;;;15.80;99.90;;;;;;21039321;28;20409;-59
2023/09/04 20:48:33;;;;;;;19.45;16.27;;;15.50;99.90;;;;;;21036322;28;20036;-56
2023/09/04 20:58:37;;;;;;;15.85;14.35;;;15.50;99.90;;;;;;21032956;28;20100;-59
2023/09/04 23:23:08;;;;;;;13.35;11.95;;;14.80;99.90;;;;;;21036671;28;20547;-53
2023/09/04 23:33:10;;;;;;;15.80;14.18;;;14.70;99.90;;;;;;21047249;28;20032;-59
2023/09/04 23:53:32;;;;;;;13.68;12.27;;;14.90;99.90;;;;;;21026562;28;20028;-59
